createdAt,value
2022-09-12T00:02:13.291Z,11.42
2022-09-12T00:08:22.005Z,11.33
2022-09-12T00:14:41.968Z,11.27
2022-09-12T00:21:10.876Z,11.23
2022-09-12T00:26:50.719Z,11.18
2022-09-12T00:32:32.646Z,11.15
2022-09-12T00:38:50.109Z,11.13
2022-09-12T00:45:14.970Z,11.12
2022-09-12T00:51:38.522Z,11.14
2022-09-12T00:58:07.529Z,11.10
2022-09-12T01:04:14.893Z,11.05
2022-09-12T01:10:15.996Z,11.00
2022-09-12T01:16:24.675Z,10.98
2022-09-12T01:22:50.109Z,10.95
2022-09-12T01:30:08.531Z,10.92
2022-09-12T01:36:58.401Z,10.89
2022-09-12T01:43:25.698Z,10.85
2022-09-12T01:50:11.987Z,10.85
2022-09-12T01:56:25.895Z,10.92
2022-09-12T02:02:20.200Z,11.01
2022-09-12T02:08:32.354Z,11.03
2022-09-12T02:14:37.047Z,11.01
2022-09-12T02:20:56.400Z,11.00
2022-09-12T02:27:10.036Z,11.04
2022-09-12T02:33:37.761Z,11.11
2022-09-12T02:39:52.821Z,11.18
2022-09-12T02:46:14.107Z,11.22
2022-09-12T02:52:33.672Z,11.22
2022-09-12T02:58:58.036Z,11.17
2022-09-12T03:05:25.440Z,11.12
2022-09-12T03:12:18.516Z,11.05
2022-09-12T03:18:43.321Z,10.96
2022-09-12T03:25:37.296Z,10.87
2022-09-12T03:32:18.944Z,10.76
2022-09-12T03:39:06.812Z,10.75
2022-09-12T03:45:32.659Z,10.74
2022-09-12T03:51:31.129Z,10.69
2022-09-12T03:56:45.715Z,10.62
2022-09-12T04:02:36.504Z,10.54
2022-09-12T04:08:12.295Z,10.44
2022-09-12T04:13:46.872Z,10.36
2022-09-12T04:19:42.339Z,10.30
2022-09-12T04:25:37.908Z,10.25
2022-09-12T04:31:42.001Z,10.25
2022-09-12T04:38:07.893Z,10.27
2022-09-12T04:44:03.222Z,10.34
2022-09-12T04:50:19.344Z,10.46
2022-09-12T04:56:19.751Z,10.58
2022-09-12T05:02:20.545Z,10.72
2022-09-12T05:07:38.214Z,10.82
2022-09-12T05:13:26.074Z,10.90
2022-09-12T05:19:27.997Z,10.96
2022-09-12T05:25:12.309Z,11.03
2022-09-12T05:31:01.167Z,11.13
2022-09-12T05:36:58.317Z,11.23
2022-09-12T05:42:54.925Z,11.35
2022-09-12T05:48:39.614Z,11.52
2022-09-12T05:54:20.823Z,11.68
2022-09-12T06:00:13.951Z,11.85
2022-09-12T06:05:56.728Z,12.02
2022-09-12T06:11:50.937Z,12.22
2022-09-12T06:18:00.037Z,12.45
2022-09-12T06:24:12.027Z,12.65
2022-09-12T06:29:21.992Z,12.83
2022-09-12T06:34:38.175Z,12.91
2022-09-12T06:39:57.487Z,12.99
2022-09-12T06:45:31.499Z,13.09
2022-09-12T06:51:06.217Z,13.19
2022-09-12T06:56:48.262Z,13.35
2022-09-12T07:02:20.171Z,13.59
2022-09-12T07:08:12.879Z,13.83
2022-09-12T07:13:45.160Z,14.11
2022-09-12T07:19:05.648Z,14.20
2022-09-12T07:24:12.016Z,14.27
2022-09-12T07:29:36.885Z,14.38
2022-09-12T07:34:50.073Z,14.51
2022-09-12T07:40:13.230Z,14.42
2022-09-12T07:46:01.612Z,14.41
2022-09-12T07:51:38.422Z,14.38
2022-09-12T07:57:22.423Z,14.46
2022-09-12T08:02:50.708Z,14.68
2022-09-12T08:08:27.717Z,14.99
2022-09-12T08:14:17.842Z,15.16
2022-09-12T08:20:25.361Z,15.29
2022-09-12T08:26:08.592Z,15.37
2022-09-12T08:32:08.386Z,15.44
2022-09-12T08:37:13.612Z,15.54
2022-09-12T08:43:18.042Z,15.63
2022-09-12T08:48:34.308Z,15.88
2022-09-12T08:54:04.148Z,15.86
2022-09-12T08:59:49.395Z,15.78
2022-09-12T09:05:33.772Z,16.04
2022-09-12T09:11:46.764Z,16.29
2022-09-12T09:17:08.836Z,16.28
2022-09-12T09:23:15.988Z,16.44
2022-09-12T09:29:02.563Z,16.41
2022-09-12T09:34:48.605Z,16.28
2022-09-12T09:40:27.015Z,16.33
2022-09-12T09:46:12.363Z,16.45
2022-09-12T09:51:42.032Z,16.50
2022-09-12T09:57:12.474Z,16.75
2022-09-12T10:02:38.839Z,17.00
2022-09-12T10:07:50.374Z,17.21
2022-09-12T10:13:18.000Z,17.43
2022-09-12T10:18:42.551Z,17.69
2022-09-12T10:24:00.204Z,17.72
2022-09-12T10:29:35.316Z,17.82
2022-09-12T10:34:55.099Z,17.94
2022-09-12T10:40:20.783Z,17.77
2022-09-12T10:45:47.260Z,17.63
2022-09-12T10:51:07.007Z,17.82
2022-09-12T10:56:33.758Z,18.00
2022-09-12T11:02:34.697Z,18.19
2022-09-12T11:09:18.635Z,18.21
2022-09-12T11:15:30.389Z,18.26
2022-09-12T11:21:39.980Z,18.27
2022-09-12T11:27:18.545Z,18.17
2022-09-12T11:33:58.807Z,18.26
2022-09-12T11:39:45.042Z,18.29
2022-09-12T11:44:57.755Z,18.48
2022-09-12T11:50:26.471Z,18.33
2022-09-12T11:55:44.018Z,18.12
2022-09-12T12:01:03.335Z,18.12
2022-09-12T12:06:42.016Z,18.26
2022-09-12T12:11:57.148Z,18.27
2022-09-12T12:17:34.771Z,18.20
2022-09-12T12:22:37.475Z,18.18
2022-09-12T12:27:55.945Z,18.28
2022-09-12T12:33:30.215Z,18.29
2022-09-12T12:38:52.528Z,18.48
2022-09-12T12:43:57.885Z,18.53
2022-09-12T12:49:24.739Z,18.52
2022-09-12T12:54:27.219Z,18.64
2022-09-12T12:59:32.507Z,18.59
2022-09-12T13:04:35.185Z,18.29
2022-09-12T13:10:07.037Z,18.08
2022-09-12T13:16:06.146Z,18.35
2022-09-12T13:21:23.959Z,18.70
2022-09-12T13:26:36.273Z,18.72
2022-09-12T13:32:00.840Z,18.63
2022-09-12T13:37:51.427Z,18.53
2022-09-12T13:43:57.300Z,18.53
2022-09-12T13:49:33.577Z,18.48
2022-09-12T13:54:48.586Z,18.28
2022-09-12T13:59:57.628Z,18.06
2022-09-12T14:05:10.256Z,17.68
2022-09-12T14:10:38.078Z,17.35
2022-09-12T14:15:45.470Z,17.07
2022-09-12T14:20:54.220Z,16.96
2022-09-12T14:26:08.361Z,16.85
2022-09-12T14:32:09.770Z,16.82
2022-09-12T14:37:25.340Z,16.76
2022-09-12T14:42:50.456Z,16.69
2022-09-12T14:48:21.416Z,16.64
2022-09-12T14:53:45.488Z,16.55
2022-09-12T15:00:20.258Z,16.46
2022-09-12T15:05:26.039Z,16.45
2022-09-12T15:11:21.599Z,16.56
2022-09-12T15:17:03.419Z,16.74
2022-09-12T15:22:14.196Z,16.87
2022-09-12T15:27:25.137Z,16.90
2022-09-12T15:32:31.103Z,16.92
2022-09-12T15:38:17.100Z,16.92
2022-09-12T15:43:49.638Z,16.86
2022-09-12T15:49:23.639Z,16.82
2022-09-12T15:54:28.588Z,16.73
2022-09-12T15:59:42.243Z,16.66
2022-09-12T16:05:22.564Z,16.58
2022-09-12T16:10:49.726Z,16.44
2022-09-12T16:16:17.621Z,16.24
2022-09-12T16:21:40.007Z,16.05
2022-09-12T16:27:17.803Z,15.88
2022-09-12T16:32:47.558Z,15.68
2022-09-12T16:38:04.249Z,15.51
2022-09-12T16:43:31.331Z,15.35
2022-09-12T16:49:13.164Z,15.18
2022-09-12T16:55:25.689Z,15.01
2022-09-12T17:00:47.922Z,14.83
2022-09-12T17:06:15.870Z,14.69
2022-09-12T17:11:45.225Z,14.53
2022-09-12T17:17:07.364Z,14.36
2022-09-12T17:22:38.671Z,14.21
2022-09-12T17:28:05.850Z,14.06
2022-09-12T17:33:25.080Z,13.93
2022-09-12T17:39:03.937Z,13.78
2022-09-12T17:44:53.014Z,13.64
2022-09-12T17:50:30.873Z,13.49
2022-09-12T17:56:05.431Z,13.33
2022-09-12T18:01:52.649Z,13.18
2022-09-12T18:08:17.167Z,13.03
2022-09-12T18:13:26.945Z,12.90
2022-09-12T18:18:37.771Z,12.77
2022-09-12T18:24:25.514Z,12.66
2022-09-12T18:30:21.018Z,12.52
2022-09-12T18:35:39.309Z,12.40
2022-09-12T18:41:57.123Z,12.32
2022-09-12T18:47:30.642Z,12.27
2022-09-12T18:52:59.518Z,12.28
2022-09-12T18:58:02.181Z,12.26
2022-09-12T19:04:20.338Z,12.22
2022-09-12T19:10:43.720Z,12.17
2022-09-12T19:16:27.362Z,12.15
2022-09-12T19:21:56.165Z,12.15
2022-09-12T19:27:13.116Z,12.11
2022-09-12T19:33:23.665Z,12.03
2022-09-12T19:39:07.526Z,11.92
2022-09-12T19:44:55.977Z,11.80
2022-09-12T19:50:12.562Z,11.71
2022-09-12T19:55:15.022Z,11.63
2022-09-12T20:00:48.955Z,11.55
2022-09-12T20:06:06.934Z,11.45
2022-09-12T20:11:10.611Z,11.36
2022-09-12T20:16:33.563Z,11.28
2022-09-12T20:22:10.752Z,11.19
2022-09-12T20:27:12.995Z,11.11
2022-09-12T20:32:23.965Z,11.05
2022-09-12T20:37:41.149Z,10.97
2022-09-12T20:42:54.637Z,10.89
2022-09-12T20:48:09.915Z,10.82
2022-09-12T20:53:45.665Z,10.76
2022-09-12T20:59:06.216Z,10.70
2022-09-12T21:04:54.094Z,10.62
2022-09-12T21:10:47.037Z,10.55
2022-09-12T21:17:07.726Z,10.49
2022-09-12T21:23:41.215Z,10.41
2022-09-12T21:29:34.604Z,10.34
2022-09-12T21:35:11.207Z,10.30
2022-09-12T21:40:57.465Z,10.25
2022-09-12T21:46:17.116Z,10.20
2022-09-12T21:51:57.834Z,10.14
2022-09-12T21:57:20.327Z,10.05
2022-09-12T22:03:28.203Z,9.96
2022-09-12T22:09:10.548Z,9.88
2022-09-12T22:14:29.770Z,9.85
2022-09-12T22:20:00.970Z,9.82
2022-09-12T22:26:18.419Z,9.80
2022-09-12T22:32:11.219Z,9.77
2022-09-12T22:38:32.895Z,9.71
2022-09-12T22:44:25.627Z,9.67
2022-09-12T22:50:21.479Z,9.60
2022-09-12T22:56:20.295Z,9.55
2022-09-12T23:02:29.781Z,9.49
2022-09-12T23:07:52.769Z,9.44
2022-09-12T23:13:20.705Z,9.40
2022-09-12T23:18:52.176Z,9.36
2022-09-12T23:24:04.900Z,9.32
2022-09-12T23:29:35.695Z,9.29
2022-09-12T23:34:59.625Z,9.27
2022-09-12T23:40:37.018Z,9.24
2022-09-12T23:46:19.802Z,9.19
2022-09-12T23:52:11.148Z,9.14
2022-09-12T23:58:34.113Z,9.08
